Observations for VALLEY RAF, United Kingdom (EGOV)

EGOV 280450Z AUTO 28002KT 9000 BR OVC003/// 14/14 Q0999 
EGOV 280350Z AUTO 26004KT 9000 BR OVC002/// 14/14 Q1000 REDZ
EGOV 280250Z AUTO 27004KT 9999 -DZ BKN003/// BKN006/// 14/14 Q1000  
EGOV 280150Z AUTO 28006KT 9999 BKN003/// 14/13 Q1000 RERA   
EGOV 280050Z AUTO 27002KT 6000 -DZ FEW012/// BKN022/// 15/15 Q1001  
EGOV 272350Z AUTO 33002KT 8000 BR SCT034/// BKN046/// 15/15 Q1001   
EGOV 272250Z AUTO 06004KT 8000 BR FEW023/// BKN036/// 15/15 Q1001   
EGOV 272150Z AUTO 06003KT 8000 BR BKN022/// 15/15 Q1002 RERA
EGOV 272050Z AUTO 08003KT 2400 DZ SCT002/// BKN030/// 15/14 Q1002   
EGOV 271950Z 21003KT 3000 RADZ SCT002 SCT019 OVC028 15/14 Q1002 AMB 
EGOV 271850Z 22004KT 9999 -RA FEW004 BKN019 15/15 Q1002 WHT 
EGOV 271750Z 20007KT 9999 FEW005 BKN019 BKN032 17/14 Q1003 WHT  
EGOV 271650Z 15009KT 9999 SCT017 BKN034 18/14 Q1003 WHT 
EGOV 271550Z 17009KT 9999 BKN015 OVC020 17/15 Q1003 WHT NOSIG   
EGOV 271450Z 15011KT 9999 FEW012 BKN016 OVC030 18/15 Q1004 WHT NOSIG
EGOV 271419Z 15012KT 9999 FEW006 BKN019 BKN030 17/15 Q1004 WHT NOSIG
EGOV 271419Z 15012KT 9999 FEW006 BKN019 BKN030 17/15 Q1004 WHT NOSIG
EGOV 271350Z 15012KT 9999 FEW005 BKN013 BKN022 17/15 Q1004 GRN BECMG FEW013 BKN022 WHT  
EGOV 271250Z 16012KT 5000 HZ FEW009 BKN015 OVC030 16/15 Q1004 WHT TEMPO 4000 -DZ SCT012 GRN 
EGOV 271222Z 16013KT 5000 BR FEW008 SCT015 BKN025 16/15 Q1004 WHT TEMPO 4000 -DZ SCT012 GRN 
EGOV 271222Z 16013KT 5000 BR FEW008 SCT015 BKN025 16/15 Q1004 WHT TEMPO 4000 -DZ SCT012 GRN
EGOV 271150Z 16013KT 4000 -DZ SCT013 BKN022 OVC030 16/15 Q1005 GRN TEMPO 5000 -DZ SCT015 WHT
EGOV 271050Z 17013KT 3800 DZ SCT009 BKN015 OVC022 16/15 Q1005 GRN TEMPO 5000 -DZ SCT015 WHT 
EGOV 271033Z 17014KT 4500 -DZ SCT009 BKN015 OVC025 16/15 Q1005 GRN BECMG 5000 -DZ GRN   
EGOV 271033Z 17014KT 4500 -DZ SCT009 BKN015 OVC025 16/15 Q1005 GRN BECMG 5000 -DZ GRN
EGOV 270950Z 17012KT 8000 BR FEW004 SCT025 OVC030 16/15 Q1005 BLU TEMPO SCT010 GRN  
EGOV 270837Z 17018KT 5000 RA FEW020 BKN026 OVC030 15/14 Q1005 WHT TEMPO SCT010 GRN  
EGOV 270837Z 17018KT 5000 RA FEW020 BKN026 OVC030 15/14 Q1005 WHT TEMPO SCT010 GRN
EGOV 270750Z 16014KT 9000 HZ FEW010 OVC028 16/14 Q1005 BLU TEMPO 6000 -RADZ SCT010 GRN  
EGOV 270650Z 16012KT 6000 BR FEW010 BKN016 OVC025 15/15 Q1006 WHT TEMPO 4500 RA SCT010 GRN  
EGOV 270550Z 16009KT 7000 4000W -RADZ FEW004 BKN009 OVC030 15/15 Q1006 GRN TEMPO 2000 RADZ SCT004 YLO2  
EGOV 270450Z AUTO 15007KT 4500 RA FEW003/// BKN010/// 15/14 Q1006